Weather History for PAZK - June, 2013

Change the Weather History Date:

Thursday, June 27, 2013

  Actual Average Record
Temperature  
Mean Temperature 63 °F -  
Max Temperature 73 °F 58 °F 73 °F (2004)
Min Temperature 53 °F 42 °F 37 °F (2006)
Degree Days  
Heating Degree Days 2    
Growing Degree Days 13 (Base 50)    
Moisture  
Dew Point 49 °F    
Average Humidity 66    
Maximum Humidity 82    
Minimum Humidity 47    
Precipitation  
Precipitation 0.00 in - - ()
Sea Level Pressure  
Sea Level Pressure 29.98 in    
Wind  
Wind Speed 11 mph (WSW)    
Max Wind Speed 17 mph    
Max Gust Speed 22 mph    
Visibility 10 miles    
Events      
Averages and records for this station are not official NWS values.
T = Trace of Precipitation, MM = Missing Value Source: NWS Daily Summary

Daily Weather History Graph

Daily Weather History Graph

Search for Another Location

Airport or City:

Trip Planner

Search our weather history database for the weather conditions in past years. The results will help you decide how hot, cold, wet, or windy it might be!

Date:

Astronomy

Jun. 27, 2013 Rise Set
Actual Time 4:02 AM AKDT 11:40 PM AKDT
Civil Twilight 2:24 AM AKDT 1:19 AM AKDT
Nautical Twilight Sun does not set Sun does not set
Astronomical Twilight Sun does not set Sun does not set
Moon 12:20 AM AKDT (6/27) 11:12 AM AKDT (6/27)
Length of Visible Light 22h 55m
Length of Day
19h 37m
Waning Gibbous, 75% of the Moon is Illuminated
Jun 27
Waning Gibbous
Jun 29
Last Quarter
Jul 7
New
Jul 15
First Quarter
Jul 22
Full

Hourly Weather History & Observations

Time (AKDT) Temp. Dew Point Humidity Pressure Visibility Wind Dir Wind Speed Gust Speed Precip Events Conditions
12:16 AM 57.2 °F 44.6 °F 63% 29.90 in 10.0 mi WSW 10.4 mph 17.3 mph N/A   Scattered Clouds
12:36 AM 57.2 °F 44.6 °F 63% 29.91 in 10.0 mi SW 11.5 mph 18.4 mph N/A   Partly Cloudy
12:56 AM 57.2 °F 44.6 °F 63% 29.91 in 10.0 mi WSW 9.2 mph - N/A   Scattered Clouds
1:16 AM 57.2 °F 46.4 °F 67% 29.91 in 10.0 mi West 9.2 mph - N/A   Mostly Cloudy
1:36 AM 57.2 °F 44.6 °F 63% 29.93 in 10.0 mi SW 12.7 mph 17.3 mph N/A   Mostly Cloudy
1:56 AM 57.2 °F 44.6 °F 63% 29.94 in 10.0 mi WSW 9.2 mph - N/A   Overcast
2:16 AM 55.4 °F 46.4 °F 72% 29.94 in 10.0 mi West 10.4 mph - N/A   Overcast
2:36 AM 53.6 °F 48.2 °F 82% 29.93 in 10.0 mi West 12.7 mph 18.4 mph N/A   Mostly Cloudy
2:56 AM 53.6 °F 48.2 °F 82% 29.93 in 10.0 mi West 9.2 mph - N/A   Overcast
3:16 AM 53.6 °F 46.4 °F 77% 29.93 in 10.0 mi WSW 10.4 mph - N/A   Mostly Cloudy
3:36 AM 53.6 °F 46.4 °F 77% 29.95 in 10.0 mi WSW 10.4 mph - N/A   Mostly Cloudy
3:56 AM 53.6 °F 46.4 °F 77% 29.95 in 10.0 mi WSW 11.5 mph 17.3 mph N/A   Overcast
4:16 AM 53.6 °F 46.4 °F 77% 29.95 in 10.0 mi West 12.7 mph - N/A   Overcast
4:36 AM 53.6 °F 48.2 °F 82% 29.94 in 10.0 mi WSW 11.5 mph - N/A   Overcast
4:56 AM 53.6 °F 46.4 °F 77% 29.95 in 10.0 mi WSW 12.7 mph 20.7 mph N/A   Overcast
5:16 AM 53.6 °F 46.4 °F 77% 29.95 in 10.0 mi West 11.5 mph 19.6 mph N/A   Overcast
5:36 AM 53.6 °F 46.4 °F 77% 29.95 in 10.0 mi WSW 11.5 mph - N/A   Overcast
5:56 AM 53.6 °F 46.4 °F 77% 29.96 in 10.0 mi WSW 12.7 mph - N/A   Overcast
6:16 AM 53.6 °F 46.4 °F 77% 29.96 in 10.0 mi West 15.0 mph 19.6 mph N/A   Overcast
6:36 AM 53.6 °F 48.2 °F 82% 29.96 in 10.0 mi West 8.1 mph - N/A   Mostly Cloudy
6:56 AM 53.6 °F 46.4 °F 77% 29.97 in 10.0 mi WSW 15.0 mph 19.6 mph N/A   Mostly Cloudy
7:16 AM 55.4 °F 48.2 °F 77% 29.97 in 10.0 mi WSW 13.8 mph - N/A   Scattered Clouds
7:36 AM 55.4 °F 48.2 °F 77% 29.98 in 10.0 mi WSW 12.7 mph 18.4 mph N/A   Scattered Clouds
7:56 AM 55.4 °F 48.2 °F 77% 29.98 in 10.0 mi WSW 13.8 mph - N/A   Overcast
8:16 AM 57.2 °F 48.2 °F 72% 29.98 in 10.0 mi WSW 13.8 mph 20.7 mph N/A   Mostly Cloudy
8:36 AM 57.2 °F 48.2 °F 72% 29.98 in 10.0 mi WSW 13.8 mph 18.4 mph N/A   Partly Cloudy
8:56 AM 57.2 °F 48.2 °F 72% 29.98 in 10.0 mi WSW 13.8 mph - N/A   Partly Cloudy
9:16 AM 57.2 °F 48.2 °F 72% 29.99 in 10.0 mi WSW 11.5 mph 19.6 mph N/A   Partly Cloudy
9:36 AM 57.2 °F 48.2 °F 72% 29.99 in 10.0 mi SW 12.7 mph 18.4 mph N/A   Clear
9:56 AM 59.0 °F 48.2 °F 67% 30.00 in 10.0 mi WSW 11.5 mph 17.3 mph N/A   Clear
10:16 AM 59.0 °F 48.2 °F 67% 30.00 in 10.0 mi WSW 8.1 mph 16.1 mph N/A   Clear
10:36 AM 60.8 °F 50.0 °F 68% 30.00 in 10.0 mi West 10.4 mph - N/A   Clear
10:56 AM 60.8 °F 51.8 °F 72% 30.00 in 10.0 mi SW 11.5 mph - N/A   Clear
11:16 AM 62.6 °F 51.8 °F 68% 30.00 in 10.0 mi SW 10.4 mph 16.1 mph N/A   Clear
11:36 AM 62.6 °F 51.8 °F 68% 30.00 in 10.0 mi SW 10.4 mph 16.1 mph N/A   Mostly Cloudy
11:56 AM 64.4 °F 51.8 °F 64% 30.00 in 10.0 mi WSW 9.2 mph - N/A   Overcast
12:16 PM 64.4 °F 51.8 °F 64% 29.99 in 10.0 mi SW 11.5 mph - N/A   Partly Cloudy
12:36 PM 64.4 °F 51.8 °F 64% 29.99 in 10.0 mi SW 9.2 mph 16.1 mph N/A   Clear
12:56 PM 66.2 °F 51.8 °F 60% 29.99 in 10.0 mi SW 9.2 mph - N/A   Clear
1:16 PM 68.0 °F 51.8 °F 56% 30.00 in 10.0 mi WSW 9.2 mph - N/A   Clear
1:36 PM 69.8 °F 53.6 °F 56% 29.99 in 10.0 mi SW 13.8 mph - N/A   Clear
1:56 PM 69.8 °F 51.8 °F 53% 29.99 in 10.0 mi WSW 10.4 mph - N/A   Clear
2:16 PM 69.8 °F 51.8 °F 53% 29.99 in 10.0 mi SW 9.2 mph - N/A   Clear
2:36 PM 69.8 °F 51.8 °F 53% 29.99 in 10.0 mi WSW 8.1 mph 16.1 mph N/A   Clear
2:56 PM 71.6 °F 51.8 °F 50% 29.99 in 10.0 mi SW 10.4 mph 16.1 mph N/A   Clear
3:16 PM 71.6 °F 51.8 °F 50% 29.98 in 10.0 mi WSW 8.1 mph - N/A   Clear
3:36 PM 71.6 °F 51.8 °F 50% 29.98 in 10.0 mi SSW 12.7 mph 16.1 mph N/A   Clear
3:56 PM 71.6 °F 51.8 °F 50% 29.98 in 10.0 mi SW 11.5 mph 16.1 mph N/A   Partly Cloudy
4:16 PM 71.6 °F 51.8 °F 50% 29.98 in 10.0 mi WSW 8.1 mph 17.3 mph N/A   Clear
4:36 PM 71.6 °F 51.8 °F 50% 29.98 in 10.0 mi SSW 10.4 mph - N/A   Clear
4:56 PM 73.4 °F 51.8 °F 47% 29.98 in 10.0 mi West 11.5 mph 17.3 mph N/A   Clear
5:16 PM 71.6 °F 51.8 °F 50% 29.98 in 10.0 mi SW 12.7 mph 16.1 mph N/A   Clear
5:36 PM 71.6 °F 51.8 °F 50% 29.98 in 10.0 mi SW 10.4 mph 16.1 mph N/A   Clear
5:56 PM 71.6 °F 51.8 °F 50% 29.98 in 10.0 mi WSW 12.7 mph 17.3 mph N/A   Partly Cloudy
6:16 PM 71.6 °F 51.8 °F 50% 29.98 in 10.0 mi SW 12.7 mph 17.3 mph N/A   Clear
6:36 PM 69.8 °F 51.8 °F 53% 29.98 in 10.0 mi SW 11.5 mph 18.4 mph N/A   Clear
6:56 PM 69.8 °F 51.8 °F 53% 29.99 in 10.0 mi SW 10.4 mph 19.6 mph N/A   Scattered Clouds
7:16 PM 66.2 °F 51.8 °F 60% 29.99 in 10.0 mi WSW 10.4 mph - N/A   Clear
7:36 PM 64.4 °F 51.8 °F 64% 30.00 in 10.0 mi WSW 6.9 mph - N/A   Partly Cloudy
7:56 PM 66.2 °F 51.8 °F 60% 30.00 in 10.0 mi SSW 10.4 mph - N/A   Scattered Clouds
8:16 PM 64.4 °F 51.8 °F 64% 30.01 in 10.0 mi SW 8.1 mph - N/A   Mostly Cloudy
8:36 PM 64.4 °F 51.8 °F 64% 30.00 in 10.0 mi SW 13.8 mph - N/A   Overcast
8:56 PM 62.6 °F 51.8 °F 68% 30.01 in 10.0 mi SW 10.4 mph - N/A   Mostly Cloudy
9:16 PM 62.6 °F 51.8 °F 68% 30.01 in 10.0 mi WSW 8.1 mph - N/A   Mostly Cloudy
9:36 PM 60.8 °F 51.8 °F 72% 30.01 in 10.0 mi WSW 11.5 mph 17.3 mph N/A   Scattered Clouds
9:56 PM 60.8 °F 51.8 °F 72% 30.02 in 10.0 mi WSW 12.7 mph 18.4 mph N/A   Mostly Cloudy
10:36 PM 57.2 °F 50.0 °F 77% 30.03 in 10.0 mi WSW 17.3 mph 21.9 mph N/A   Overcast
10:56 PM 57.2 °F 50.0 °F 77% 30.05 in 10.0 mi SW 13.8 mph 19.6 mph N/A   Overcast
11:16 PM 55.4 °F 48.2 °F 77% 30.05 in 10.0 mi WSW 15.0 mph 20.7 mph N/A   Overcast
11:36 PM 55.4 °F 48.2 °F 77% 30.05 in 10.0 mi WSW 15.0 mph 20.7 mph N/A   Overcast
11:56 PM 55.4 °F 48.2 °F 77% 30.05 in 10.0 mi WSW 15.0 mph 20.7 mph N/A   Overcast